createdAt,value
2019-05-07T00:00:03.449Z,8.25
2019-05-07T00:01:03.017Z,8.25
2019-05-07T00:02:03.006Z,8.28
2019-05-07T00:03:03.403Z,8.24
2019-05-07T00:04:02.967Z,8.20
2019-05-07T00:05:02.957Z,8.25
2019-05-07T00:06:03.034Z,8.28
2019-05-07T00:07:02.936Z,8.28
2019-05-07T00:08:03.200Z,8.28
2019-05-07T00:09:03.267Z,8.27
2019-05-07T00:10:03.436Z,8.29
2019-05-07T00:11:02.892Z,8.42
2019-05-07T00:12:05.177Z,8.31
2019-05-07T00:13:02.869Z,8.29
2019-05-07T00:14:03.198Z,8.42
2019-05-07T00:15:04.642Z,8.37
2019-05-07T00:16:02.832Z,8.40
2019-05-07T00:17:04.578Z,8.46
2019-05-07T00:18:03.297Z,8.45
2019-05-07T00:19:02.826Z,8.43
2019-05-07T00:20:02.789Z,8.42
2019-05-07T00:21:03.489Z,8.40
2019-05-07T00:22:02.766Z,8.40
2019-05-07T00:23:03.102Z,8.40
2019-05-07T00:24:02.770Z,8.31
2019-05-07T00:25:03.211Z,8.31
2019-05-07T00:26:02.727Z,8.31
2019-05-07T00:27:02.955Z,8.36
2019-05-07T00:28:02.984Z,8.25
2019-05-07T00:29:02.690Z,8.36
2019-05-07T00:30:03.023Z,8.25
2019-05-07T00:31:03.020Z,8.40
2019-05-07T00:32:03.041Z,8.28
2019-05-07T00:33:02.933Z,8.28
2019-05-07T00:34:02.863Z,8.27
2019-05-07T00:35:02.648Z,8.24
2019-05-07T00:36:02.717Z,8.24
2019-05-07T00:37:02.603Z,8.22
2019-05-07T00:38:02.632Z,8.27
2019-05-07T00:39:02.857Z,8.21
2019-05-07T00:40:02.832Z,8.21
2019-05-07T00:41:02.860Z,8.22
2019-05-07T00:42:03.110Z,8.21
2019-05-07T00:43:02.752Z,8.24
2019-05-07T00:44:03.261Z,8.21
2019-05-07T00:45:14.158Z,8.22
2019-05-07T00:46:03.498Z,8.21
2019-05-07T00:47:02.487Z,8.21
2019-05-07T00:48:02.989Z,8.14
2019-05-07T00:49:02.520Z,8.13
2019-05-07T00:50:03.336Z,8.21
2019-05-07T00:51:02.451Z,8.14
2019-05-07T00:52:02.913Z,8.13
2019-05-07T00:53:02.424Z,8.14
2019-05-07T00:54:02.918Z,8.13
2019-05-07T00:55:03.016Z,8.17
2019-05-07T00:56:02.394Z,8.22
2019-05-07T00:57:03.133Z,8.22
2019-05-07T00:58:02.525Z,8.24
2019-05-07T00:59:02.407Z,8.25
2019-05-07T01:00:02.415Z,8.25
2019-05-07T01:01:02.647Z,8.29
2019-05-07T01:02:02.395Z,8.22
2019-05-07T01:03:03.070Z,8.20
2019-05-07T01:04:02.790Z,8.22
2019-05-07T01:05:02.968Z,8.24
2019-05-07T01:06:02.280Z,8.21
2019-05-07T01:07:02.843Z,8.17
2019-05-07T01:08:02.692Z,8.13
2019-05-07T01:09:03.168Z,7.99
2019-05-07T01:10:02.416Z,7.99
2019-05-07T01:11:02.334Z,8.07
2019-05-07T01:12:03.156Z,8.02
2019-05-07T01:13:02.729Z,8.00
2019-05-07T01:14:02.807Z,8.03
2019-05-07T01:15:02.862Z,8.02
2019-05-07T01:16:02.569Z,7.99
2019-05-07T01:17:02.511Z,7.91
2019-05-07T01:18:02.880Z,7.91
2019-05-07T01:19:02.299Z,7.89
2019-05-07T01:20:02.882Z,7.82
2019-05-07T01:21:02.456Z,7.82
2019-05-07T01:22:03.162Z,7.79
2019-05-07T01:23:02.708Z,7.85
2019-05-07T01:24:03.203Z,7.84
2019-05-07T01:25:02.375Z,7.73
2019-05-07T01:26:03.059Z,7.76
2019-05-07T01:27:02.249Z,7.79
2019-05-07T01:28:02.735Z,7.73
2019-05-07T01:29:03.172Z,7.66
2019-05-07T01:30:02.680Z,7.66
2019-05-07T01:31:02.234Z,7.63
2019-05-07T01:32:03.130Z,7.66
2019-05-07T01:33:02.801Z,7.58
2019-05-07T01:34:02.533Z,7.60
2019-05-07T01:35:02.554Z,7.55
2019-05-07T01:36:02.461Z,7.58
2019-05-07T01:37:02.684Z,7.55
2019-05-07T01:38:03.132Z,7.57
2019-05-07T01:39:02.623Z,7.51
2019-05-07T01:40:03.021Z,7.50
2019-05-07T01:41:02.890Z,7.52
2019-05-07T01:42:02.279Z,7.45
2019-05-07T01:43:02.570Z,7.36
2019-05-07T01:44:02.096Z,7.47
2019-05-07T01:45:02.493Z,7.44
2019-05-07T01:46:03.185Z,7.41
2019-05-07T01:47:02.546Z,7.42
2019-05-07T01:48:04.202Z,7.44
2019-05-07T01:49:03.064Z,7.41
2019-05-07T01:50:02.976Z,7.30
2019-05-07T01:51:03.413Z,7.30
2019-05-07T01:52:02.445Z,7.30
2019-05-07T01:53:03.751Z,7.30
2019-05-07T01:54:02.327Z,7.33
2019-05-07T01:55:03.284Z,7.33
2019-05-07T01:56:03.251Z,7.45
2019-05-07T01:57:02.839Z,7.39
2019-05-07T01:58:04.607Z,7.42
2019-05-07T01:59:02.419Z,7.42
2019-05-07T02:00:02.594Z,7.34
2019-05-07T02:01:02.801Z,7.32
2019-05-07T02:02:03.006Z,7.32
2019-05-07T02:03:02.813Z,7.32
2019-05-07T02:04:02.323Z,7.30
2019-05-07T02:05:03.202Z,7.27
2019-05-07T02:06:02.220Z,7.26
2019-05-07T02:07:02.849Z,7.32
2019-05-07T02:08:02.916Z,7.30
2019-05-07T02:09:02.366Z,7.33
2019-05-07T02:10:02.845Z,7.30
2019-05-07T02:11:02.076Z,7.26
2019-05-07T02:12:02.365Z,7.27
2019-05-07T02:13:02.274Z,7.30
2019-05-07T02:14:02.034Z,7.30
2019-05-07T02:15:02.739Z,7.33
2019-05-07T02:16:04.145Z,7.44
2019-05-07T02:17:02.966Z,7.37
2019-05-07T02:18:01.926Z,7.36
2019-05-07T02:19:02.129Z,7.41
2019-05-07T02:20:02.606Z,7.45
2019-05-07T02:21:03.228Z,7.45
2019-05-07T02:22:02.766Z,7.44
2019-05-07T02:23:02.789Z,7.52
2019-05-07T02:24:03.368Z,7.48
2019-05-07T02:25:03.331Z,7.55
2019-05-07T02:26:02.417Z,7.60
2019-05-07T02:27:02.983Z,7.51
2019-05-07T02:28:02.218Z,7.51
2019-05-07T02:29:02.766Z,7.55
2019-05-07T02:30:04.244Z,7.54
2019-05-07T02:31:04.029Z,7.55
2019-05-07T02:32:04.820Z,7.44
2019-05-07T02:33:03.807Z,7.42
2019-05-07T02:34:02.780Z,7.45
2019-05-07T02:35:04.015Z,7.52
2019-05-07T02:36:03.110Z,7.41
2019-05-07T02:37:04.063Z,7.41
2019-05-07T02:38:03.146Z,7.42
2019-05-07T02:39:03.755Z,7.39
2019-05-07T02:40:04.366Z,7.41
2019-05-07T02:41:02.866Z,7.37
2019-05-07T02:42:03.670Z,7.48
2019-05-07T02:43:02.863Z,7.42
2019-05-07T02:44:04.117Z,7.51
2019-05-07T02:45:04.092Z,7.50
2019-05-07T02:46:17.389Z,7.52
2019-05-07T02:47:04.014Z,7.54
2019-05-07T02:48:03.452Z,7.52
2019-05-07T02:49:03.204Z,7.57
2019-05-07T02:50:03.037Z,7.55
2019-05-07T02:51:03.895Z,7.57
2019-05-07T02:52:03.813Z,7.55
2019-05-07T02:53:04.031Z,7.58
2019-05-07T02:54:03.630Z,7.57
2019-05-07T02:55:04.002Z,7.52
2019-05-07T02:56:03.591Z,7.51
2019-05-07T02:57:03.146Z,7.60
2019-05-07T02:58:03.573Z,7.66
2019-05-07T02:59:04.023Z,7.67
2019-05-07T03:00:04.426Z,7.63
2019-05-07T03:01:04.444Z,7.62
2019-05-07T03:02:03.691Z,7.62
2019-05-07T03:03:03.783Z,7.66
2019-05-07T03:04:03.638Z,7.67
2019-05-07T03:05:04.880Z,7.62
2019-05-07T03:06:02.907Z,7.70
2019-05-07T03:07:03.760Z,7.55
2019-05-07T03:08:03.289Z,7.66
2019-05-07T03:09:03.241Z,7.63
2019-05-07T03:10:03.641Z,7.60
2019-05-07T03:11:03.389Z,7.66
2019-05-07T03:12:03.757Z,7.58
2019-05-07T03:13:03.065Z,7.69
2019-05-07T03:14:03.245Z,7.69
2019-05-07T03:15:04.105Z,7.66
2019-05-07T03:16:03.667Z,7.66
2019-05-07T03:17:03.020Z,7.77
2019-05-07T03:18:03.449Z,7.81
2019-05-07T03:19:03.771Z,7.73
2019-05-07T03:20:03.093Z,7.71
2019-05-07T03:21:03.379Z,7.74
2019-05-07T03:22:03.739Z,7.73
2019-05-07T03:23:03.101Z,7.70
2019-05-07T03:24:03.563Z,7.70
2019-05-07T03:25:03.376Z,7.69
2019-05-07T03:26:01.432Z,7.66
2019-05-07T03:27:03.216Z,7.62
2019-05-07T03:28:04.147Z,7.69
2019-05-07T03:29:03.657Z,7.73
2019-05-07T03:30:04.263Z,7.76
2019-05-07T03:31:05.324Z,7.77
2019-05-07T03:32:06.092Z,7.67
2019-05-07T03:33:06.321Z,7.70
2019-05-07T03:34:06.319Z,7.70
2019-05-07T03:35:06.679Z,7.70
2019-05-07T03:36:06.696Z,7.71
2019-05-07T03:37:06.234Z,7.69
2019-05-07T03:38:03.521Z,7.67
2019-05-07T03:39:03.399Z,7.60
2019-05-07T03:40:04.045Z,7.52
2019-05-07T03:41:03.413Z,7.60
2019-05-07T03:42:03.447Z,7.55
2019-05-07T03:43:02.933Z,7.54
2019-05-07T03:44:03.678Z,7.57
2019-05-07T03:45:03.654Z,7.44
2019-05-07T03:46:03.446Z,7.42
2019-05-07T03:47:03.210Z,7.51
2019-05-07T03:48:03.735Z,7.50
2019-05-07T03:49:00.462Z,7.50
2019-05-07T03:50:03.385Z,7.54
2019-05-07T03:51:03.405Z,7.67
2019-05-07T03:52:03.867Z,7.50
2019-05-07T03:53:02.788Z,7.52
2019-05-07T03:54:03.110Z,7.52
2019-05-07T03:55:03.353Z,7.54
2019-05-07T03:56:03.647Z,7.48
2019-05-07T03:57:04.953Z,7.50
2019-05-07T03:58:03.118Z,7.51
2019-05-07T03:59:03.469Z,7.58
2019-05-07T04:00:03.940Z,7.57
2019-05-07T04:01:00.353Z,7.66
2019-05-07T04:02:03.074Z,7.63
2019-05-07T04:03:03.439Z,7.62
2019-05-07T04:04:00.306Z,7.63
2019-05-07T04:05:03.937Z,7.63
2019-05-07T04:06:03.541Z,7.57
2019-05-07T04:07:03.337Z,7.63
2019-05-07T04:08:03.087Z,7.69
2019-05-07T04:09:03.354Z,7.63
2019-05-07T04:10:00.227Z,7.71
2019-05-07T04:11:03.218Z,7.62
2019-05-07T04:12:00.211Z,7.69
2019-05-07T04:13:00.197Z,7.66
2019-05-07T04:14:02.712Z,7.58
2019-05-07T04:15:03.070Z,7.52
2019-05-07T04:16:03.644Z,7.51
2019-05-07T04:17:14.435Z,7.52
2019-05-07T04:18:03.615Z,7.55
2019-05-07T04:19:03.643Z,7.52
2019-05-07T04:20:00.117Z,7.58
2019-05-07T04:21:03.233Z,7.57
2019-05-07T04:22:00.121Z,7.57
2019-05-07T04:23:00.099Z,7.58
2019-05-07T04:24:03.331Z,7.55
2019-05-07T04:25:00.064Z,7.57
2019-05-07T04:26:00.074Z,7.66
2019-05-07T04:27:03.037Z,7.55
2019-05-07T04:28:00.033Z,7.62
2019-05-07T04:29:00.021Z,7.70
2019-05-07T04:30:03.409Z,7.66
2019-05-07T04:31:02.512Z,7.66
2019-05-07T04:32:03.045Z,7.67
2019-05-07T04:32:59.974Z,7.62
2019-05-07T04:33:59.963Z,7.52
2019-05-07T04:34:59.951Z,7.50
2019-05-07T04:36:02.758Z,7.55
2019-05-07T04:36:59.954Z,7.51
2019-05-07T04:38:03.408Z,7.54
2019-05-07T04:39:03.014Z,7.51
2019-05-07T04:40:02.902Z,7.47
2019-05-07T04:40:59.894Z,7.52
2019-05-07T04:41:59.899Z,7.42
2019-05-07T04:43:02.559Z,7.44
2019-05-07T04:44:03.133Z,7.41
2019-05-07T04:44:59.840Z,7.57
2019-05-07T04:46:02.834Z,7.54
2019-05-07T04:46:59.843Z,7.54
2019-05-07T04:48:02.831Z,7.60
2019-05-07T04:48:59.801Z,7.67
2019-05-07T04:50:03.485Z,7.58
2019-05-07T04:50:59.777Z,7.54
2019-05-07T04:51:59.788Z,7.62
2019-05-07T04:53:02.624Z,7.62
2019-05-07T04:53:59.739Z,7.54
2019-05-07T04:54:59.731Z,7.66
2019-05-07T04:56:03.046Z,7.67
2019-05-07T04:56:59.732Z,7.74
2019-05-07T04:58:02.745Z,7.67
2019-05-07T04:58:59.696Z,7.74
2019-05-07T05:00:02.997Z,7.69
2019-05-07T05:00:59.665Z,7.74
2019-05-07T05:01:59.680Z,7.76
2019-05-07T05:02:59.642Z,7.74
2019-05-07T05:03:59.634Z,7.67
2019-05-07T05:04:59.622Z,7.69
2019-05-07T05:06:02.470Z,7.79
2019-05-07T05:07:02.001Z,7.66
2019-05-07T05:07:59.610Z,7.63
2019-05-07T05:08:59.616Z,7.67
2019-05-07T05:10:02.625Z,7.70
2019-05-07T05:10:59.555Z,7.63
2019-05-07T05:12:01.937Z,7.67
2019-05-07T05:12:59.555Z,7.77
2019-05-07T05:13:59.522Z,7.82
2019-05-07T05:14:59.510Z,7.77
2019-05-07T05:15:59.496Z,7.82
2019-05-07T05:16:59.485Z,7.76
2019-05-07T05:17:59.499Z,7.85
2019-05-07T05:18:59.462Z,7.76
2019-05-07T05:20:02.985Z,7.86
2019-05-07T05:20:59.444Z,7.84
2019-05-07T05:21:59.434Z,7.85
2019-05-07T05:22:59.443Z,7.85
2019-05-07T05:24:01.705Z,7.92
2019-05-07T05:24:59.397Z,7.94
2019-05-07T05:25:59.385Z,8.03
2019-05-07T05:26:59.372Z,8.03
2019-05-07T05:27:59.388Z,8.00
2019-05-07T05:28:59.356Z,7.99
2019-05-07T05:29:59.341Z,8.02
2019-05-07T05:30:59.332Z,8.10
2019-05-07T05:31:59.320Z,8.12
2019-05-07T05:33:01.350Z,8.10
2019-05-07T05:33:59.295Z,8.21
2019-05-07T05:34:59.287Z,8.21
2019-05-07T05:35:59.276Z,8.21
2019-05-07T05:36:59.262Z,8.27
2019-05-07T05:37:59.254Z,8.28
2019-05-07T05:38:59.265Z,8.28
2019-05-07T05:40:06.220Z,8.27
2019-05-07T05:41:02.546Z,8.29
2019-05-07T05:41:59.206Z,8.43
2019-05-07T05:42:59.200Z,8.40
2019-05-07T05:43:59.208Z,8.45
2019-05-07T05:44:59.175Z,8.36
2019-05-07T05:45:59.161Z,8.43
2019-05-07T05:46:59.152Z,8.45
2019-05-07T05:48:04.731Z,8.39
2019-05-07T05:49:02.459Z,8.36
2019-05-07T05:49:59.116Z,8.36
2019-05-07T05:50:59.104Z,8.40
2019-05-07T05:51:59.095Z,8.39
2019-05-07T05:52:59.100Z,8.45
2019-05-07T05:53:59.106Z,8.45
2019-05-07T05:54:59.065Z,8.42
2019-05-07T05:55:59.050Z,8.50
2019-05-07T05:56:59.041Z,8.55
2019-05-07T05:57:59.038Z,8.54
2019-05-07T05:58:59.042Z,8.50
2019-05-07T05:59:59.008Z,8.52
2019-05-07T06:00:58.993Z,8.60
2019-05-07T06:01:58.985Z,8.58
2019-05-07T06:02:58.971Z,8.63
2019-05-07T06:03:58.985Z,8.65
2019-05-07T06:04:58.951Z,8.68
2019-05-07T06:05:58.938Z,8.75
2019-05-07T06:07:08.789Z,8.71
2019-05-07T06:07:59.916Z,8.75
2019-05-07T06:08:58.930Z,8.82
2019-05-07T06:09:58.895Z,8.71
2019-05-07T06:10:58.883Z,8.65
2019-05-07T06:11:58.874Z,8.76
2019-05-07T06:12:58.864Z,8.61
2019-05-07T06:13:58.890Z,8.73
2019-05-07T06:14:58.837Z,8.68
2019-05-07T06:15:58.829Z,8.78
2019-05-07T06:16:58.816Z,8.79
2019-05-07T06:17:58.808Z,8.76
2019-05-07T06:18:58.795Z,8.79
2019-05-07T06:19:58.808Z,8.78
2019-05-07T06:20:58.771Z,8.82
2019-05-07T06:21:58.762Z,8.78
2019-05-07T06:22:58.750Z,8.80
2019-05-07T06:23:58.740Z,8.88
2019-05-07T06:24:58.757Z,8.73
2019-05-07T06:25:58.717Z,8.86
2019-05-07T06:26:58.707Z,8.89
2019-05-07T06:27:58.695Z,8.85
2019-05-07T06:28:58.683Z,8.88
2019-05-07T06:29:58.697Z,8.85
2019-05-07T06:30:58.662Z,8.75
2019-05-07T06:31:58.658Z,8.76
2019-05-07T06:32:58.646Z,8.80
2019-05-07T06:33:58.629Z,8.70
2019-05-07T06:34:58.617Z,8.68
2019-05-07T06:35:58.629Z,8.65
2019-05-07T06:36:58.596Z,8.75
2019-05-07T06:37:58.588Z,8.73
2019-05-07T06:38:58.573Z,8.71
2019-05-07T06:39:58.564Z,8.76
2019-05-07T06:40:58.578Z,8.80
2019-05-07T06:41:58.546Z,8.85
2019-05-07T06:42:58.533Z,8.98
2019-05-07T06:43:58.518Z,9.01
2019-05-07T06:44:58.508Z,8.94
2019-05-07T06:45:58.521Z,8.96
2019-05-07T06:46:58.485Z,8.94
2019-05-07T06:47:58.473Z,8.93
2019-05-07T06:48:58.465Z,8.96
2019-05-07T06:49:58.451Z,8.97
2019-05-07T06:50:58.470Z,8.93
2019-05-07T06:51:58.428Z,8.86
2019-05-07T06:52:58.418Z,8.91
2019-05-07T06:53:58.407Z,8.85
2019-05-07T06:54:58.394Z,9.00
2019-05-07T06:55:58.418Z,8.93
2019-05-07T06:56:58.382Z,8.97
2019-05-07T06:57:58.364Z,8.96
2019-05-07T06:58:58.351Z,8.96
2019-05-07T06:59:58.341Z,9.04
2019-05-07T07:00:58.355Z,8.97
2019-05-07T07:01:59.307Z,8.98
2019-05-07T07:02:58.323Z,9.08
2019-05-07T07:03:58.307Z,9.06
2019-05-07T07:04:58.287Z,9.16
2019-05-07T07:05:58.298Z,9.17
2019-05-07T07:06:58.262Z,9.16
2019-05-07T07:07:58.252Z,9.17
2019-05-07T07:08:58.243Z,9.24
2019-05-07T07:09:58.229Z,9.32
2019-05-07T07:10:58.392Z,9.35
2019-05-07T07:11:58.204Z,9.35
2019-05-07T07:12:58.312Z,9.37
2019-05-07T07:13:58.251Z,9.49
2019-05-07T07:14:58.310Z,9.48
2019-05-07T07:15:58.222Z,9.45
2019-05-07T07:16:58.154Z,9.55
2019-05-07T07:17:58.138Z,9.52
2019-05-07T07:18:58.126Z,9.52
2019-05-07T07:19:58.128Z,9.53
2019-05-07T07:20:58.109Z,9.53
2019-05-07T07:21:58.119Z,9.62
2019-05-07T07:22:58.083Z,9.55
2019-05-07T07:23:58.071Z,9.56
2019-05-07T07:24:58.059Z,9.58
2019-05-07T07:25:58.054Z,9.68
2019-05-07T07:26:58.068Z,9.67
2019-05-07T07:27:58.031Z,9.65
2019-05-07T07:28:58.019Z,9.77
2019-05-07T07:29:58.009Z,9.73
2019-05-07T07:30:58.017Z,9.80
2019-05-07T07:31:58.006Z,9.83
2019-05-07T07:32:57.973Z,9.83
2019-05-07T07:33:57.969Z,9.92
2019-05-07T07:34:57.950Z,9.86
2019-05-07T07:35:57.941Z,9.92
2019-05-07T07:37:07.226Z,9.93
2019-05-07T07:37:58.917Z,9.92
2019-05-07T07:38:57.906Z,9.93
2019-05-07T07:39:57.892Z,9.93
2019-05-07T07:40:57.881Z,9.80
2019-05-07T07:41:57.899Z,9.81
2019-05-07T07:42:57.861Z,9.73
2019-05-07T07:43:57.849Z,9.68
2019-05-07T07:44:57.837Z,9.59
2019-05-07T07:45:57.827Z,9.65
2019-05-07T07:46:57.841Z,9.67
2019-05-07T07:47:57.805Z,9.63
2019-05-07T07:49:09.838Z,9.77
2019-05-07T07:49:58.786Z,9.74
2019-05-07T07:50:57.771Z,9.71
2019-05-07T07:51:57.794Z,9.77
2019-05-07T07:52:57.749Z,9.81
2019-05-07T07:53:57.748Z,9.77
2019-05-07T07:54:57.724Z,9.70
2019-05-07T07:55:57.716Z,9.85
2019-05-07T07:56:57.708Z,9.85
2019-05-07T07:57:57.716Z,9.86
2019-05-07T07:58:57.681Z,9.83
2019-05-07T07:59:57.675Z,9.93
2019-05-07T08:00:57.661Z,9.93
2019-05-07T08:01:57.661Z,9.99
2019-05-07T08:02:57.662Z,10.06
2019-05-07T08:03:57.627Z,10.14
2019-05-07T08:04:57.619Z,10.16
2019-05-07T08:05:57.602Z,10.13
2019-05-07T08:06:57.591Z,10.22
2019-05-07T08:07:57.603Z,10.42
2019-05-07T08:08:57.568Z,10.35
2019-05-07T08:09:57.565Z,10.39
2019-05-07T08:10:57.548Z,10.46
2019-05-07T08:11:57.539Z,10.47
2019-05-07T08:12:57.550Z,10.47
2019-05-07T08:13:57.516Z,10.54
2019-05-07T08:15:13.268Z,10.54
2019-05-07T08:15:58.493Z,10.46
2019-05-07T08:16:57.481Z,10.52
2019-05-07T08:17:57.492Z,10.55
2019-05-07T08:18:57.460Z,10.57
2019-05-07T08:19:57.446Z,10.55
2019-05-07T08:20:57.439Z,10.60
2019-05-07T08:21:57.424Z,10.51
2019-05-07T08:22:57.437Z,10.55
2019-05-07T08:23:57.401Z,10.52
2019-05-07T08:24:57.391Z,10.58
2019-05-07T08:25:57.382Z,10.58
2019-05-07T08:26:57.375Z,10.57
2019-05-07T08:27:58.265Z,10.63
2019-05-07T08:28:57.354Z,10.70
2019-05-07T08:29:57.333Z,10.73
2019-05-07T08:30:57.323Z,10.78
2019-05-07T08:31:57.312Z,10.83
2019-05-07T08:32:57.331Z,10.81
2019-05-07T08:33:57.297Z,10.83
2019-05-07T08:34:57.278Z,10.83
2019-05-07T08:35:57.270Z,10.73
2019-05-07T08:36:57.255Z,10.87
2019-05-07T08:37:57.276Z,10.88
2019-05-07T08:38:57.235Z,10.81
2019-05-07T08:39:57.224Z,10.80
2019-05-07T08:40:57.213Z,10.72
2019-05-07T08:41:57.212Z,10.81
2019-05-07T08:42:57.191Z,10.80
2019-05-07T08:44:11.258Z,10.81
2019-05-07T08:44:58.207Z,10.87
2019-05-07T08:45:57.154Z,10.90
2019-05-07T08:46:57.151Z,11.01
2019-05-07T08:47:57.135Z,11.05
2019-05-07T08:48:57.149Z,11.02
2019-05-07T08:49:57.112Z,11.05
2019-05-07T08:50:57.103Z,11.11
2019-05-07T08:51:57.087Z,11.17
2019-05-07T08:52:57.079Z,11.12
2019-05-07T08:53:57.105Z,11.13
2019-05-07T08:54:57.057Z,11.16
2019-05-07T08:55:57.060Z,11.28
2019-05-07T08:56:57.034Z,11.30
2019-05-07T08:57:57.024Z,11.42
2019-05-07T08:58:57.043Z,11.38
2019-05-07T09:00:01.041Z,11.46
2019-05-07T09:00:56.988Z,11.57
2019-05-07T09:01:56.975Z,11.53
2019-05-07T09:02:56.978Z,11.56
2019-05-07T09:03:56.982Z,11.44
2019-05-07T09:04:56.944Z,11.44
2019-05-07T09:05:56.934Z,11.49
2019-05-07T09:06:56.921Z,11.38
2019-05-07T09:07:56.909Z,11.36
2019-05-07T09:08:56.922Z,11.45
2019-05-07T09:09:56.894Z,11.42
2019-05-07T09:10:56.922Z,11.63
2019-05-07T09:11:56.871Z,11.64
2019-05-07T09:12:56.862Z,11.77
2019-05-07T09:13:56.874Z,11.77
2019-05-07T09:14:56.830Z,11.81
2019-05-07T09:15:56.821Z,11.82
2019-05-07T09:16:56.812Z,11.82
2019-05-07T09:20:36.133Z,12.18
2019-05-07T09:21:36.099Z,12.25
2019-05-07T09:22:36.087Z,12.40
2019-05-07T09:23:36.076Z,12.54
2019-05-07T09:24:36.092Z,12.58
2019-05-07T09:25:36.057Z,12.67
2019-05-07T09:26:36.041Z,12.51
2019-05-07T09:27:36.032Z,12.44
2019-05-07T09:28:36.019Z,12.25
2019-05-07T09:29:36.033Z,11.97
2019-05-07T09:30:36.004Z,11.79
2019-05-07T09:31:36.021Z,11.64
2019-05-07T09:32:35.980Z,11.59
2019-05-07T09:33:35.964Z,11.49
2019-05-07T09:34:35.994Z,11.53
2019-05-07T09:35:35.947Z,11.49
2019-05-07T09:36:35.939Z,11.53
2019-05-07T09:37:35.918Z,11.57
2019-05-07T09:38:35.908Z,11.54
2019-05-07T09:39:35.957Z,11.63
2019-05-07T09:40:35.919Z,11.62
2019-05-07T09:41:35.931Z,11.64
2019-05-07T09:42:35.874Z,11.56
2019-05-07T09:43:35.853Z,11.69
2019-05-07T09:44:35.862Z,11.77
2019-05-07T09:45:35.861Z,11.74
2019-05-07T09:46:35.818Z,11.81
2019-05-07T09:47:35.808Z,11.81
2019-05-07T09:48:35.824Z,11.87
2019-05-07T09:49:35.790Z,11.96
2019-05-07T09:50:35.806Z,12.05
2019-05-07T09:51:35.781Z,12.12
2019-05-07T09:52:35.754Z,12.25
2019-05-07T09:53:35.750Z,12.49
2019-05-07T09:54:35.728Z,12.54
2019-05-07T09:55:35.762Z,12.52
2019-05-07T09:56:35.716Z,12.51
2019-05-07T09:57:35.698Z,12.52
2019-05-07T09:58:39.084Z,12.52
2019-05-07T09:59:35.683Z,12.55
2019-05-07T10:00:35.695Z,12.66
2019-05-07T10:01:35.651Z,12.63
2019-05-07T10:02:35.654Z,12.76
2019-05-07T10:03:35.634Z,12.74
2019-05-07T10:04:35.619Z,12.74
2019-05-07T10:05:35.646Z,12.87
2019-05-07T10:06:35.601Z,12.85
2019-05-07T10:07:35.588Z,12.87
2019-05-07T10:08:35.586Z,12.81
2019-05-07T10:09:35.564Z,12.85
2019-05-07T10:10:35.604Z,12.80
2019-05-07T10:11:35.554Z,12.81
2019-05-07T10:12:35.531Z,12.76
2019-05-07T10:13:35.521Z,12.70
2019-05-07T10:14:35.536Z,12.89
2019-05-07T10:15:35.521Z,12.81
2019-05-07T10:16:35.486Z,12.87
2019-05-07T10:17:35.502Z,12.95
2019-05-07T10:18:35.462Z,12.96
2019-05-07T10:19:35.453Z,13.03
2019-05-07T10:20:35.473Z,13.14
2019-05-07T10:21:35.429Z,13.27
2019-05-07T10:22:35.423Z,13.24
2019-05-07T10:23:35.436Z,13.31
2019-05-07T10:24:35.394Z,13.25
2019-05-07T10:25:35.387Z,13.43
2019-05-07T10:26:35.398Z,13.39
2019-05-07T10:27:35.361Z,13.46
2019-05-07T10:28:35.362Z,13.47
2019-05-07T10:29:35.339Z,13.39
2019-05-07T10:30:35.335Z,13.35
2019-05-07T10:31:35.350Z,13.32
2019-05-07T10:32:35.306Z,13.43
2019-05-07T10:33:35.334Z,13.39
2019-05-07T10:34:35.286Z,13.27
2019-05-07T10:35:35.272Z,13.06
2019-05-07T10:36:35.304Z,12.98
2019-05-07T10:37:35.265Z,12.95
2019-05-07T10:38:35.236Z,12.85
2019-05-07T10:39:35.467Z,12.77
2019-05-07T10:40:35.214Z,12.84
2019-05-07T10:41:35.231Z,12.88
2019-05-07T10:42:35.195Z,12.80
2019-05-07T10:43:35.186Z,12.69
2019-05-07T10:44:35.201Z,12.73
2019-05-07T10:45:35.161Z,12.73
2019-05-07T10:46:35.175Z,12.79
2019-05-07T10:47:35.183Z,12.79
2019-05-07T10:48:35.125Z,12.74
2019-05-07T10:49:35.113Z,12.70
2019-05-07T10:50:38.934Z,12.77
2019-05-07T10:51:35.119Z,12.81
2019-05-07T10:52:35.086Z,12.79
2019-05-07T10:53:35.074Z,12.87
2019-05-07T10:54:35.058Z,12.81
2019-05-07T10:55:35.049Z,12.69
2019-05-07T10:56:35.064Z,12.62
2019-05-07T10:57:35.038Z,12.67
2019-05-07T10:58:35.035Z,12.62
2019-05-07T10:59:35.003Z,12.63
2019-05-07T11:00:34.994Z,12.69
2019-05-07T11:01:35.005Z,12.69
2019-05-07T11:02:34.973Z,12.76
2019-05-07T11:03:34.961Z,12.70
2019-05-07T11:04:42.579Z,12.76
2019-05-07T11:05:35.947Z,12.71
2019-05-07T11:06:35.255Z,12.79
2019-05-07T11:07:35.157Z,12.80
2019-05-07T11:08:35.327Z,12.70
2019-05-07T11:09:35.930Z,12.69
2019-05-07T11:10:35.615Z,12.56
2019-05-07T11:11:35.300Z,12.43
2019-05-07T11:12:35.317Z,12.48
2019-05-07T11:13:35.186Z,12.44
2019-05-07T11:14:35.596Z,12.41
2019-05-07T11:15:35.234Z,12.43
2019-05-07T11:16:35.094Z,12.54
2019-05-07T11:17:35.119Z,12.56
2019-05-07T11:18:35.038Z,12.51
2019-05-07T11:19:35.254Z,12.58
2019-05-07T11:20:46.363Z,12.56
2019-05-07T11:21:35.975Z,12.52
2019-05-07T11:22:35.141Z,12.55
2019-05-07T11:23:35.022Z,12.56
2019-05-07T11:24:35.077Z,12.58
2019-05-07T11:25:35.011Z,12.63
2019-05-07T11:26:35.013Z,12.73
2019-05-07T11:27:35.830Z,12.77
2019-05-07T11:28:35.159Z,12.76
2019-05-07T11:29:36.674Z,12.84
2019-05-07T11:30:35.049Z,12.94
2019-05-07T11:31:34.922Z,12.98
2019-05-07T11:32:34.933Z,12.99
2019-05-07T11:33:35.927Z,13.01
2019-05-07T11:34:34.980Z,13.16
2019-05-07T11:35:34.885Z,13.27
2019-05-07T11:36:35.002Z,13.28
2019-05-07T11:37:34.920Z,13.38
2019-05-07T11:38:34.978Z,13.46
2019-05-07T11:39:34.567Z,13.46
2019-05-07T11:40:34.994Z,13.41
2019-05-07T11:41:34.536Z,13.53
2019-05-07T11:42:34.568Z,13.48
2019-05-07T11:43:34.540Z,13.50
2019-05-07T11:44:34.522Z,13.63
2019-05-07T11:45:34.506Z,13.59
2019-05-07T11:46:34.494Z,13.57
2019-05-07T11:47:34.485Z,13.63
2019-05-07T11:48:36.288Z,13.68
2019-05-07T11:49:34.444Z,13.73
2019-05-07T11:50:34.459Z,13.68
2019-05-07T11:51:34.422Z,13.90
2019-05-07T11:52:35.819Z,13.96
2019-05-07T11:53:34.428Z,13.91
2019-05-07T11:54:34.390Z,13.72
2019-05-07T11:55:34.404Z,13.73
2019-05-07T11:56:34.365Z,13.99
2019-05-07T11:57:34.356Z,14.09
2019-05-07T11:58:34.369Z,14.17
2019-05-07T11:59:34.334Z,14.09
2019-05-07T12:00:34.321Z,13.91
2019-05-07T12:01:43.524Z,14.02
2019-05-07T12:02:35.298Z,14.26
2019-05-07T12:03:34.313Z,14.16
2019-05-07T12:04:34.278Z,14.11
2019-05-07T12:05:34.267Z,14.17
2019-05-07T12:06:34.255Z,14.24
2019-05-07T12:07:34.244Z,14.16
2019-05-07T12:08:42.909Z,14.26
2019-05-07T12:09:35.220Z,14.23
2019-05-07T12:10:34.211Z,14.35
2019-05-07T12:11:34.211Z,14.46
2019-05-07T12:12:34.192Z,14.46
2019-05-07T12:13:34.203Z,14.56
2019-05-07T12:14:34.988Z,14.57
2019-05-07T12:15:34.158Z,14.67
2019-05-07T12:16:34.148Z,14.82
2019-05-07T12:17:34.132Z,14.79
2019-05-07T12:18:34.153Z,14.82
2019-05-07T12:19:34.111Z,14.83
2019-05-07T12:20:34.104Z,14.78
2019-05-07T12:21:34.091Z,14.64
2019-05-07T12:22:34.085Z,14.52
2019-05-07T12:23:34.102Z,14.39
2019-05-07T12:24:34.055Z,14.36
2019-05-07T12:25:34.045Z,14.35
2019-05-07T12:26:34.031Z,14.31
2019-05-07T12:27:34.022Z,14.36
2019-05-07T12:28:34.036Z,14.46
2019-05-07T12:29:33.997Z,14.46
2019-05-07T12:30:33.993Z,14.39
2019-05-07T12:31:33.980Z,14.35
2019-05-07T12:32:33.971Z,14.34
2019-05-07T12:33:33.979Z,14.38
2019-05-07T12:34:33.965Z,14.39
2019-05-07T12:35:33.944Z,14.39
2019-05-07T12:36:33.938Z,14.23
2019-05-07T12:37:33.907Z,14.17
2019-05-07T12:38:33.914Z,14.09
2019-05-07T12:39:33.910Z,14.06
2019-05-07T12:40:33.879Z,14.12
2019-05-07T12:41:34.421Z,14.16
2019-05-07T12:42:33.852Z,14.16
2019-05-07T12:43:33.862Z,14.29
2019-05-07T12:44:33.857Z,14.27
2019-05-07T12:45:33.824Z,14.27
2019-05-07T12:46:33.810Z,14.20
2019-05-07T12:47:33.795Z,14.17
2019-05-07T12:48:33.786Z,14.19
2019-05-07T12:49:33.801Z,14.24
2019-05-07T12:50:33.772Z,14.30
2019-05-07T12:51:37.412Z,14.52
2019-05-07T12:52:33.739Z,14.53
2019-05-07T12:53:33.729Z,14.57
2019-05-07T12:54:36.581Z,14.67
2019-05-07T12:55:33.712Z,14.78
2019-05-07T12:56:33.710Z,14.85
2019-05-07T12:57:33.684Z,14.82
2019-05-07T12:58:33.680Z,14.94
2019-05-07T12:59:33.689Z,14.98
2019-05-07T13:00:33.652Z,14.86
2019-05-07T13:01:33.640Z,14.80
2019-05-07T13:02:40.626Z,14.85
2019-05-07T13:03:34.618Z,14.94
2019-05-07T13:04:33.630Z,14.95
2019-05-07T13:05:33.595Z,15.01
2019-05-07T13:06:33.584Z,15.07
2019-05-07T13:07:33.574Z,14.95
2019-05-07T13:08:33.564Z,14.98
2019-05-07T13:09:33.556Z,15.01
2019-05-07T13:10:33.565Z,15.04